Time;durP1;ratioP1;P1;durP2;ratioP2;P2;SDS_P1;SDS_P2;PMS_P1;PMS_P2;Temp;Humidity;BMP_temperature;BMP_pressure;BME280_temperature;BME280_humidity;BME280_pressure;Samples;Min_cycle;Max_cycle;Signal;HPM_P1;HPM_P2
2021/05/18 00:00:40;;;;;;;0.93;0.93;;;;;;;19.12;70.63;97015.06;5052307;28;20209;-67
2021/05/18 00:03:12;;;;;;;1.20;1.10;;;;;;;19.12;70.44;97009.97;5055499;28;20697;-67
2021/05/18 00:05:40;;;;;;;1.00;1.00;;;;;;;19.12;70.43;97015.06;5060064;28;20240;-67
2021/05/18 00:08:09;;;;;;;1.07;0.90;;;;;;;19.12;71.29;97009.97;5056793;28;20213;-67
2021/05/18 00:13:23;;;;;;;2.30;1.10;;;;;;;18.31;70.37;96876.69;5056176;28;20622;-67
2021/05/18 00:15:50;;;;;;;0.90;0.90;;;;;;;19.12;70.69;97025.25;5051227;28;20302;-67
2021/05/18 00:18:17;;;;;;;0.90;0.90;;;;;;;19.11;70.61;97026.09;5037194;28;20315;-67
2021/05/18 00:20:43;;;;;;;0.93;0.87;;;;;;;19.12;70.82;97026.91;5056072;28;20204;-67
2021/05/18 00:23:11;;;;;;;1.03;1.03;;;;;;;19.12;70.77;97035.44;5054946;28;20200;-67
2021/05/18 00:25:38;;;;;;;1.10;0.90;;;;;;;18.31;70.77;96894.50;5054748;28;20200;-67
2021/05/18 00:28:04;;;;;;;0.90;0.90;;;;;;;19.13;70.71;97043.97;5033462;28;20213;-68
2021/05/18 00:30:31;;;;;;;0.80;0.80;;;;;;;18.77;70.53;96977.44;5034918;28;20282;-68
2021/05/18 00:32:58;;;;;;;1.00;1.00;;;;;;;19.13;70.57;97038.88;5052597;28;20624;-68
2021/05/18 00:35:24;;;;;;;1.53;0.93;;;;;;;19.12;70.76;97053.28;5051890;28;20212;-67
2021/05/18 00:37:51;;;;;;;0.90;0.90;;;;;;;19.12;70.52;97052.41;5054078;28;20709;-67
2021/05/18 00:40:18;;;;;;;0.90;0.90;;;;;;;19.12;70.49;97053.28;5054508;28;20247;-67
2021/05/18 00:42:46;;;;;;;1.00;1.00;;;;;;;19.12;70.51;97060.91;5043173;28;20205;-68
2021/05/18 00:45:13;;;;;;;1.10;1.10;;;;;;;19.11;70.46;97056.66;5052974;28;20265;-68
2021/05/18 00:47:40;;;;;;;1.93;1.00;;;;;;;18.40;70.55;97052.56;5052316;28;20352;-68
2021/05/18 00:50:07;;;;;;;0.90;0.90;;;;;;;19.12;70.49;97062.59;5040658;28;20248;-67
2021/05/18 00:52:33;;;;;;;1.07;1.07;;;;;;;19.12;70.44;97070.22;5034916;28;20267;-67
2021/05/18 00:55:06;;;;;;;0.80;0.80;;;;;;;19.12;70.82;97060.91;5056075;28;20265;-67
2021/05/18 01:00:18;;;;;;;1.00;1.00;;;;;;;15.69;70.50;96579.06;5052302;28;20323;-67
2021/05/18 01:02:46;;;;;;;0.93;0.93;;;;;;;19.11;70.52;97071.94;5045133;28;20267;-67
2021/05/18 01:05:18;;;;;;;0.90;0.90;;;;;;;19.11;70.61;97064.28;5030455;28;20231;-67
2021/05/18 01:07:48;;;;;;;0.93;0.93;;;;;;;17.70;70.52;96820.47;5034296;28;20200;-67
2021/05/18 01:10:15;;;;;;;1.00;1.00;;;;;;;19.12;70.49;97063.47;5046811;28;20197;-67
2021/05/18 01:12:42;;;;;;;0.97;0.97;;;;;;;19.12;70.56;97065.13;5054054;28;20289;-67
2021/05/18 01:15:10;;;;;;;0.97;0.90;;;;;;;19.11;70.60;97068.50;5039438;28;20366;-67
2021/05/18 01:17:37;;;;;;;0.90;0.90;;;;;;;18.01;70.52;96874.06;5031195;28;20591;-67
2021/05/18 01:20:11;;;;;;;0.90;0.90;;;;;;;14.68;70.26;96307.88;5050483;28;20229;-67
2021/05/18 01:22:42;;;;;;;0.90;0.90;;;;;;;19.12;70.78;97067.66;5034655;28;20730;-67
2021/05/18 01:25:09;;;;;;;0.90;0.90;;;;;;;19.11;70.66;97071.06;5040839;28;20235;-67
2021/05/18 01:27:37;;;;;;;1.00;1.00;;;;;;;19.11;70.59;97065.97;5051384;28;20196;-67
2021/05/18 01:30:05;;;;;;;1.00;1.00;;;;;;;19.10;70.85;97065.09;5054797;28;20231;-67
2021/05/18 01:32:32;;;;;;;0.80;0.80;;;;;;;19.11;70.71;97066.84;5057058;28;20728;-67
2021/05/18 01:34:58;;;;;;;0.93;0.93;;;;;;;17.01;70.58;96707.22;5053401;28;20232;-67
2021/05/18 01:37:25;;;;;;;1.10;1.10;;;;;;;17.85;70.71;96859.09;5057057;28;20701;-67
2021/05/18 01:40:08;;;;;;;0.80;0.80;;;;;;;19.11;70.64;97077.03;5051477;28;20221;-67
2021/05/18 01:45:32;;;;;;;0.90;0.90;;;;;;;18.07;70.63;96902.22;5057683;28;20619;-67
2021/05/18 01:48:00;;;;;;;0.90;0.90;;;;;;;19.10;70.64;97082.91;5054077;28;20208;-67
2021/05/18 01:50:28;;;;;;;0.90;0.90;;;;;;;19.11;70.83;97091.41;5058033;28;20295;-67
2021/05/18 01:52:55;;;;;;;0.90;0.90;;;;;;;19.10;70.68;97082.91;5056413;28;20292;-67
2021/05/18 01:55:32;;;;;;;1.07;1.07;;;;;;;18.77;70.62;97030.06;5039539;28;20631;-67
2021/05/18 01:57:59;;;;;;;1.00;1.00;;;;;;;19.09;70.91;97090.50;5012859;28;20229;-67
2021/05/18 02:00:29;;;;;;;0.87;0.87;;;;;;;19.11;70.66;97096.53;5054038;28;20316;-67
2021/05/18 02:02:56;;;;;;;1.00;1.00;;;;;;;19.09;70.50;97086.28;5053073;28;20630;-67
2021/05/18 02:05:25;;;;;;;1.00;1.00;;;;;;;19.09;70.63;97093.91;5039660;28;20207;-67
2021/05/18 02:07:53;;;;;;;0.90;0.90;;;;;;;18.37;71.10;97049.88;5051213;28;20232;-67
2021/05/18 02:10:19;;;;;;;0.90;0.90;;;;;;;19.10;70.58;97084.63;5050998;28;20228;-67
2021/05/18 02:12:46;;;;;;;0.93;0.93;;;;;;;19.09;70.64;97086.28;5054302;28;20204;-67
2021/05/18 02:15:27;;;;;;;1.00;1.00;;;;;;;16.52;70.49;96650.53;5054664;28;20287;-67
2021/05/18 02:26:22;;;;;;;0.90;0.90;;;;;;;19.10;70.78;97097.34;5052155;28;20692;-67
2021/05/18 02:28:49;;;;;;;0.80;0.80;;;;;;;19.10;70.71;97102.44;5054642;28;20652;-67
2021/05/18 02:31:17;;;;;;;1.00;1.00;;;;;;;19.10;70.95;97099.91;5052730;28;20283;-67
2021/05/18 02:33:48;;;;;;;0.90;0.90;;;;;;;19.09;70.74;97106.66;5053687;28;20676;-67
2021/05/18 02:36:19;;;;;;;0.90;0.90;;;;;;;19.11;70.72;97246.78;5056629;28;20299;-67
2021/05/18 02:38:45;;;;;;;0.90;0.90;;;;;;;19.08;70.85;97107.47;5051211;28;20232;-67
2021/05/18 02:41:12;;;;;;;1.00;1.00;;;;;;;18.48;70.48;97008.75;5039730;28;20209;-67
2021/05/18 02:43:58;;;;;;;1.00;1.00;;;;;;;19.09;70.66;97116.84;5037317;28;20258;-67
2021/05/18 02:49:08;;;;;;;0.90;0.90;;;;;;;19.08;70.56;97120.22;5049283;28;20266;-67
2021/05/18 02:51:40;;;;;;;0.80;0.80;;;;;;;19.09;70.80;97128.69;5060250;28;20236;-68
2021/05/18 02:54:07;;;;;;;0.90;0.90;;;;;;;19.09;70.77;97128.69;5060659;28;20232;-67
2021/05/18 02:57:10;;;;;;;1.00;1.00;;;;;;;18.88;70.47;97083.06;5054981;28;20666;-67
2021/05/18 02:59:27;;;;;;;0.90;0.90;;;;;;;19.09;70.68;97126.16;5031863;28;20270;-67
2021/05/18 03:01:58;;;;;;;0.90;0.90;;;;;;;19.08;70.84;97119.34;5057073;28;20197;-67
2021/05/18 03:04:26;;;;;;;1.00;1.00;;;;;;;19.08;70.74;97125.31;5059743;28;20204;-68
2021/05/18 03:06:52;;;;;;;1.00;1.00;;;;;;;19.09;70.78;97119.38;5052493;28;20266;-68
2021/05/18 03:09:19;;;;;;;0.90;0.90;;;;;;;19.09;70.82;97121.94;5058653;28;20277;-68
2021/05/18 03:11:47;;;;;;;1.00;1.00;;;;;;;19.09;71.04;97127.03;5041374;28;20233;-67
2021/05/18 03:14:14;;;;;;;0.90;0.90;;;;;;;19.09;70.93;97121.94;5036590;28;20626;-68
2021/05/18 03:16:41;;;;;;;0.90;0.90;;;;;;;15.78;70.62;96609.78;5060560;28;20228;-67
2021/05/18 03:19:09;;;;;;;0.90;0.90;;;;;;;19.09;70.81;97132.13;5037473;28;20647;-68
2021/05/18 03:21:37;;;;;;;0.90;0.90;;;;;;;18.67;70.79;97050.94;5021675;28;20292;-68
2021/05/18 03:24:04;;;;;;;0.90;0.90;;;;;;;19.09;70.80;97128.69;5039025;28;20238;-68
2021/05/18 03:26:31;;;;;;;0.90;0.90;;;;;;;19.08;70.74;97127.84;5062163;28;20388;-67
2021/05/18 03:29:00;;;;;;;1.13;1.00;;;;;;;19.08;70.73;97129.53;5057164;28;20307;-68
2021/05/18 03:34:34;;;;;;;0.90;0.90;;;;;;;19.08;70.89;97132.06;5060900;28;20208;-67
2021/05/18 03:37:36;;;;;;;1.00;1.00;;;;;;;16.77;70.77;96738.50;5053264;28;20207;-67
2021/05/18 03:40:07;;;;;;;1.00;1.00;;;;;;;19.07;70.88;97138.84;5036092;28;20228;-68
2021/05/18 03:42:38;;;;;;;0.90;0.90;;;;;;;16.28;71.30;96654.69;5056123;28;20694;-68
2021/05/18 03:53:55;;;;;;;0.80;0.80;;;;;;;19.08;70.89;97143.13;5053426;28;20212;-67
2021/05/18 04:17:16;;;;;;;1.00;0.83;;;;;;;18.86;70.84;97135.59;5058250;28;20212;-68
2021/05/18 04:19:59;;;;;;;0.90;0.90;;;;;;;19.07;71.08;97168.56;5052764;28;20841;-67
2021/05/18 04:52:16;;;;;;;0.87;0.87;;;;;;;18.41;70.84;97078.03;5058981;28;20281;-67
2021/05/18 04:54:51;;;;;;;0.90;0.90;;;;;;;19.07;70.79;97354.47;5044123;28;20231;-67
2021/05/18 04:59:53;;;;;;;1.10;1.00;;;;;;;17.28;70.63;96887.56;5071776;22;20777;-68
2021/05/18 05:15:37;;;;;;;1.10;1.10;;;;;;;18.83;70.95;97170.28;5016571;28;20232;-68
2021/05/18 05:18:04;;;;;;;0.90;0.90;;;;;;;19.09;71.07;97212.75;4981732;28;20202;-69
2021/05/18 05:20:31;;;;;;;1.80;0.90;;;;;;;19.09;70.63;97213.63;5013427;28;20233;-68
2021/05/18 05:22:57;;;;;;;0.90;0.90;;;;;;;18.43;70.77;97099.31;5000801;28;20559;-68
2021/05/18 05:25:24;;;;;;;0.90;0.90;;;;;;;19.03;70.88;97215.97;5021158;28;20842;-67
2021/05/18 05:27:51;;;;;;;0.90;0.90;;;;;;;15.55;70.59;96665.44;5013494;28;20256;-68
2021/05/18 05:30:18;;;;;;;1.10;1.00;;;;;;;19.05;70.78;97223.66;5004048;28;20225;-67
2021/05/18 05:32:44;;;;;;;0.90;0.90;;;;;;;17.17;70.72;96894.78;5003496;28;20206;-68
2021/05/18 05:35:11;;;;;;;0.80;0.80;;;;;;;19.09;70.75;97238.22;5022766;28;20283;-68
2021/05/18 05:37:38;;;;;;;1.00;1.00;;;;;;;17.83;71.05;97074.25;5023644;28;20230;-68
2021/05/18 05:40:05;;;;;;;1.20;1.10;;;;;;;19.09;71.10;97239.09;5004828;28;20336;-68
2021/05/18 05:42:32;;;;;;;1.33;1.10;;;;;;;18.76;69.92;97174.28;5021143;28;20229;-71
2021/05/18 05:44:58;;;;;;;0.90;0.90;;;;;;;18.79;69.33;97183.69;5008667;28;20206;-68
2021/05/18 05:47:25;;;;;;;1.10;1.00;;;;;;;19.10;69.75;97243.38;5003885;28;20341;-68
2021/05/18 05:49:53;;;;;;;1.10;1.00;;;;;;;19.11;69.78;97246.78;5015394;28;20276;-69
2021/05/18 05:52:22;;;;;;;0.80;0.80;;;;;;;19.10;70.18;97243.38;5004030;28;20325;-70
2021/05/18 05:54:49;;;;;;;0.90;0.90;;;;;;;18.23;69.86;97097.72;5013037;28;20198;-69
2021/05/18 05:57:18;;;;;;;1.00;1.00;;;;;;;19.11;70.31;97250.22;5001448;28;20252;-68
2021/05/18 05:59:46;;;;;;;1.60;0.90;;;;;;;15.00;70.05;96606.69;4999536;28;20261;-68
2021/05/18 06:02:12;;;;;;;1.57;1.10;;;;;;;19.07;70.37;97257.69;4998894;28;20745;-68
2021/05/18 06:04:39;;;;;;;0.90;0.90;;;;;;;17.54;70.35;97024.00;5016419;28;20869;-69
2021/05/18 06:07:05;;;;;;;1.33;1.13;;;;;;;18.49;70.02;97154.63;4996018;28;20253;-68
2021/05/18 06:09:34;;;;;;;0.90;0.90;;;;;;;16.40;70.03;96800.53;5000407;28;20226;-68
2021/05/18 06:12:33;;;;;;;0.93;0.93;;;;;;;18.95;70.22;97231.81;5005963;28;20647;-69
2021/05/18 06:37:11;;;;;;;1.23;1.13;;;;;;;18.73;70.27;97208.94;5014600;28;20243;-69
2021/05/18 06:42:41;;;;;;;0.90;0.90;;;;;;;19.11;70.61;97280.78;5015920;28;20230;-68
2021/05/18 06:47:49;;;;;;;0.90;0.90;;;;;;;19.12;70.10;97281.63;5022202;28;20256;-69
2021/05/18 06:52:43;;;;;;;1.03;0.90;;;;;;;19.11;70.46;97277.34;5024549;28;20279;-68
2021/05/18 06:55:15;;;;;;;0.90;0.90;;;;;;;17.91;70.23;97077.91;5022195;28;20292;-69
2021/05/18 06:57:45;;;;;;;1.00;1.00;;;;;;;19.11;70.38;97280.78;4997595;28;20202;-68
2021/05/18 07:00:17;;;;;;;0.83;0.83;;;;;;;18.69;70.46;97212.19;5002537;28;20994;-68
2021/05/18 07:02:45;;;;;;;0.90;0.87;;;;;;;19.11;70.27;97285.00;5007646;28;20257;-67
2021/05/18 07:07:54;;;;;;;1.13;1.00;;;;;;;18.91;70.61;97362.34;5008517;28;20232;-68
2021/05/18 07:10:20;;;;;;;1.00;0.90;;;;;;;19.10;70.62;97289.22;5025410;28;20756;-69
2021/05/18 07:12:47;;;;;;;0.90;0.90;;;;;;;19.10;70.54;97280.72;5023583;28;20202;-67
2021/05/18 07:15:14;;;;;;;0.80;0.80;;;;;;;18.70;70.40;97222.44;5022640;28;20206;-67
2021/05/18 07:17:40;;;;;;;0.80;0.80;;;;;;;18.76;70.44;97224.31;5010331;28;20202;-68
2021/05/18 07:20:15;;;;;;;0.90;0.90;;;;;;;19.11;70.55;97279.91;4972478;28;20251;-68
2021/05/18 07:22:42;;;;;;;0.90;0.90;;;;;;;19.10;70.41;97286.66;5020890;28;20219;-68
2021/05/18 07:25:08;;;;;;;0.97;0.97;;;;;;;18.92;70.46;97254.63;5021787;28;20198;-68
2021/05/18 07:27:35;;;;;;;1.00;1.00;;;;;;;19.12;70.62;97289.25;5026643;28;20209;-68
2021/05/18 07:30:03;;;;;;;0.90;0.90;;;;;;;19.11;70.67;97287.53;5010954;28;20218;-68
2021/05/18 07:32:29;;;;;;;0.83;0.83;;;;;;;19.11;70.34;97290.97;5018799;28;20206;-68
2021/05/18 07:34:56;;;;;;;1.07;0.97;;;;;;;19.11;70.40;97285.00;4998317;28;20248;-69
2021/05/18 07:37:23;;;;;;;1.13;1.10;;;;;;;19.10;70.51;97289.22;5024543;28;20201;-69
2021/05/18 07:39:50;;;;;;;0.90;0.90;;;;;;;19.10;70.40;97286.66;4999119;28;20226;-68
2021/05/18 07:42:16;;;;;;;1.10;1.00;;;;;;;18.67;70.33;97208.72;5020362;28;20293;-70
2021/05/18 07:44:44;;;;;;;0.93;0.93;;;;;;;18.83;70.37;97237.31;4993407;28;20293;-67
2021/05/18 07:47:13;;;;;;;1.00;1.00;;;;;;;19.09;70.48;97277.31;5009422;28;20214;-70
2021/05/18 07:49:46;;;;;;;1.63;1.13;;;;;;;18.93;70.41;97253.78;5015140;28;20299;-68
2021/05/18 08:05:58;;;;;;;0.90;0.90;;;;;;;18.68;70.34;97205.38;5021981;28;20291;-70
2021/05/18 08:08:25;;;;;;;0.90;0.90;;;;;;;19.10;70.62;97281.56;5011464;28;20225;-68
2021/05/18 08:10:59;;;;;;;0.80;0.80;;;;;;;19.11;70.62;97280.78;5016313;28;20197;-69
2021/05/18 08:13:25;;;;;;;0.90;0.90;;;;;;;18.97;70.50;97261.59;5015501;28;20256;-68
2021/05/18 10:36:02;;;;;;;1.00;1.00;;;;;;;18.73;70.27;97217.44;5013161;28;20201;-69
2021/05/18 10:38:34;;;;;;;1.00;1.00;;;;;;;18.79;70.36;97226.97;4998495;28;20933;-69
2021/05/18 10:41:22;;;;;;;2.37;0.90;;;;;;;19.12;70.35;97290.13;4996385;28;20598;-69
2021/05/18 10:43:59;;;;;;;0.90;0.90;;;;;;;19.10;70.30;97283.28;4998706;28;20193;-69
2021/05/18 10:46:28;;;;;;;1.10;1.00;;;;;;;18.81;70.34;97236.41;4999022;28;20256;-68
2021/05/18 10:48:59;;;;;;;0.90;0.90;;;;;;;18.48;70.42;97173.28;4999116;28;20249;-68
2021/05/18 10:51:39;;;;;;;1.47;1.07;;;;;;;19.12;70.28;97272.31;4995377;28;20202;-69
2021/05/18 10:54:45;;;;;;;0.90;0.90;;;;;;;19.12;70.33;97279.94;5019671;28;21700;-68
2021/05/18 10:57:14;;;;;;;0.90;0.90;;;;;;;16.27;70.11;96778.06;4957074;28;20303;-69
2021/05/18 10:59:41;;;;;;;1.10;1.10;;;;;;;19.12;70.18;97268.88;5041866;22;20714;-70
2021/05/18 11:02:12;;;;;;;1.00;1.00;;;;;;;19.13;70.40;97260.44;5025393;28;20218;-68
2021/05/18 11:04:50;;;;;;;0.90;0.90;;;;;;;19.05;70.20;97246.59;5019913;28;20275;-67
2021/05/18 11:07:20;;;;;;;0.90;0.90;;;;;;;18.96;70.32;97228.44;4992484;28;20256;-71
2021/05/18 11:09:47;;;;;;;1.20;0.87;;;;;;;18.68;70.05;97178.22;5006445;28;20257;-67
2021/05/18 11:12:17;;;;;;;2.73;0.90;;;;;;;18.97;70.31;97223.41;5011941;28;20247;-67
2021/05/18 11:15:03;;;;;;;1.50;1.00;;;;;;;19.11;70.19;97247.66;5017693;28;20198;-68
2021/05/18 11:17:34;;;;;;;1.33;1.20;;;;;;;18.98;70.13;97229.38;5025623;28;20205;-70
2021/05/18 11:20:13;;;;;;;1.10;1.00;;;;;;;19.12;70.20;97240.88;5024615;28;20224;-68
2021/05/18 11:25:30;;;;;;;1.10;1.03;;;;;;;18.97;70.36;97215.75;5025461;28;20205;-69
2021/05/18 11:28:07;;;;;;;3.60;0.97;;;;;;;18.97;70.33;97210.66;5025637;28;20205;-68
2021/05/18 11:30:34;;;;;;;1.10;1.00;;;;;;;18.95;70.53;97209.72;5015131;28;20252;-69
2021/05/18 11:33:01;;;;;;;1.00;1.00;;;;;;;19.12;70.25;97241.75;5022523;28;20293;-68
2021/05/18 11:35:28;;;;;;;1.03;1.03;;;;;;;18.66;70.62;97148.47;5026660;28;20198;-70
2021/05/18 11:37:59;;;;;;;1.50;1.00;;;;;;;18.62;70.13;97149.19;4997996;28;20300;-67
2021/05/18 11:40:26;;;;;;;1.10;1.10;;;;;;;18.96;69.98;97206.41;5025614;28;20294;-69
2021/05/18 11:42:52;;;;;;;1.00;0.90;;;;;;;19.12;70.16;97235.78;5024234;28;20313;-69
2021/05/18 11:45:19;;;;;;;0.90;0.90;;;;;;;19.05;70.11;97216.91;5023862;28;20205;-69
2021/05/18 11:47:48;;;;;;;1.00;0.90;;;;;;;18.97;70.22;97199.59;4992886;28;20210;-67
2021/05/18 11:50:16;;;;;;;1.00;1.00;;;;;;;19.13;70.13;97234.97;5004298;28;20717;-69
2021/05/18 11:52:43;;;;;;;1.00;1.00;;;;;;;19.12;69.77;97231.56;5041540;28;20194;-68
2021/05/18 11:55:24;;;;;;;0.90;0.90;;;;;;;19.07;69.95;97224.59;5026266;28;20206;-67
2021/05/18 11:57:54;;;;;;;1.07;1.07;;;;;;;19.12;69.90;97233.22;5021009;28;20213;-70
2021/05/18 12:00:32;;;;;;;1.17;1.07;;;;;;;19.08;70.03;97221.22;5007254;28;20240;-69
2021/05/18 12:03:11;;;;;;;0.90;0.90;;;;;;;18.55;69.91;97135.38;5013890;28;20793;-67
2021/05/18 12:05:54;;;;;;;1.23;1.13;;;;;;;19.14;70.10;97234.16;5019393;28;20204;-69
2021/05/18 12:08:31;;;;;;;1.13;1.07;;;;;;;18.99;69.94;97213.25;5021686;28;20209;-67
2021/05/18 12:11:14;;;;;;;0.97;0.97;;;;;;;19.14;70.10;97229.06;5023007;28;20205;-69
2021/05/18 12:13:41;;;;;;;1.20;1.10;;;;;;;19.07;69.96;97227.13;5024057;28;20205;-67
2021/05/18 12:16:09;;;;;;;2.07;1.00;;;;;;;18.53;69.75;97134.44;5024822;28;20260;-70
2021/05/18 12:18:36;;;;;;;1.10;1.00;;;;;;;19.15;70.01;97238.44;5019499;28;20206;-67
2021/05/18 12:21:05;;;;;;;1.10;1.00;;;;;;;19.00;69.86;97210.78;5024199;28;20220;-67
2021/05/18 12:23:32;;;;;;;0.90;0.90;;;;;;;18.99;70.02;97206.50;5023769;28;20610;-69
2021/05/18 12:26:09;;;;;;;1.20;1.10;;;;;;;19.15;69.96;97236.75;5012239;28;20197;-68
2021/05/18 12:28:36;;;;;;;0.90;0.90;;;;;;;19.08;69.76;97217.00;5020468;28;20220;-68
2021/05/18 12:31:03;;;;;;;0.87;0.87;;;;;;;19.15;69.72;97233.34;5024737;28;21423;-68
2021/05/18 12:33:36;;;;;;;1.00;1.00;;;;;;;19.14;69.80;97223.97;5023517;28;20288;-70
2021/05/18 12:36:04;;;;;;;0.97;0.97;;;;;;;18.58;69.64;97122.75;5023051;28;20212;-68
2021/05/18 12:38:31;;;;;;;0.90;0.90;;;;;;;18.80;69.77;97160.84;5010368;28;20284;-68
2021/05/18 12:41:03;;;;;;;0.87;0.87;;;;;;;19.15;69.71;97224.03;5010183;28;20222;-69
2021/05/18 12:43:40;;;;;;;1.00;1.00;;;;;;;19.16;69.81;97222.34;5022328;28;20247;-71
2021/05/18 12:46:10;;;;;;;0.90;0.90;;;;;;;19.15;69.64;97218.06;5039963;28;20244;-68
2021/05/18 12:48:42;;;;;;;0.93;0.93;;;;;;;18.59;69.85;97113.44;5023613;28;20229;-66
2021/05/18 12:51:21;;;;;;;0.93;0.93;;;;;;;19.02;70.03;97190.44;5017918;28;20216;-67
2021/05/18 12:53:48;;;;;;;1.37;1.00;;;;;;;19.02;69.66;97185.34;5004333;28;20479;-68
2021/05/18 12:56:47;;;;;;;1.73;0.70;;;;;;;19.16;70.02;97212.16;5004838;28;20283;-69
2021/05/18 12:59:15;;;;;;;1.43;0.90;;;;;;;19.17;70.32;97198.59;4983988;28;20232;-68
2021/05/18 13:01:44;;;;;;;0.90;0.90;;;;;;;18.85;69.78;97138.09;5024001;28;20217;-68
2021/05/18 13:04:12;;;;;;;1.30;1.00;;;;;;;19.02;69.77;97177.72;5022967;28;20217;-71
2021/05/18 13:06:48;;;;;;;0.93;0.93;;;;;;;19.12;69.76;97183.16;5021307;28;20632;-67
2021/05/18 13:09:17;;;;;;;0.90;0.90;;;;;;;19.00;70.01;97169.16;5023316;28;20644;-68
2021/05/18 13:14:55;;;;;;;0.93;0.93;;;;;;;19.15;69.86;97203.66;5012751;28;20229;-67
2021/05/18 13:17:22;;;;;;;0.80;0.80;;;;;;;19.08;69.75;97183.88;5022777;28;20232;-69
2021/05/18 13:19:58;;;;;;;0.90;0.90;;;;;;;19.16;69.64;97217.25;5006424;28;20225;-70
2021/05/18 13:22:26;;;;;;;1.20;1.10;;;;;;;19.00;70.02;97204.78;5022077;28;20244;-67
2021/05/18 13:27:59;;;;;;;0.90;0.90;;;;;;;19.15;69.92;97238.44;5021545;28;20292;-68
2021/05/18 13:30:27;;;;;;;0.90;0.90;;;;;;;19.13;69.85;97225.63;5017261;28;20225;-67
2021/05/18 13:32:54;;;;;;;0.90;0.90;;;;;;;19.14;69.73;97227.41;5024044;28;20581;-67
2021/05/18 13:35:21;;;;;;;0.90;0.90;;;;;;;19.07;69.87;97207.59;5024529;28;20277;-68
2021/05/18 13:37:48;;;;;;;1.47;0.90;;;;;;;19.15;69.95;97221.47;5021720;28;20198;-67
2021/05/18 13:40:16;;;;;;;0.97;0.97;;;;;;;19.16;69.83;97219.81;5020689;28;20217;-67
2021/05/18 13:42:43;;;;;;;0.90;0.90;;;;;;;19.17;69.70;97222.41;5016749;28;20244;-71
2021/05/18 13:45:10;;;;;;;0.90;0.90;;;;;;;19.02;69.64;97196.41;5022268;28;20209;-67
2021/05/18 13:47:37;;;;;;;1.00;1.00;;;;;;;19.17;69.80;97226.63;5022663;28;20208;-68
2021/05/18 13:50:04;;;;;;;0.90;0.90;;;;;;;19.16;69.75;97225.75;5028235;28;20604;-70
2021/05/18 13:52:31;;;;;;;0.90;0.90;;;;;;;19.10;69.66;97215.34;5024127;28;20201;-68
2021/05/18 13:54:58;;;;;;;0.93;0.93;;;;;;;19.16;69.44;97223.19;5019603;28;20279;-69
2021/05/18 13:57:25;;;;;;;1.13;0.93;;;;;;;19.16;69.88;97228.28;5022643;28;20814;-67
2021/05/18 13:59:52;;;;;;;1.00;1.00;;;;;;;19.00;69.68;97192.94;5022790;28;20385;-71
2021/05/18 14:02:19;;;;;;;1.23;1.10;;;;;;;18.53;70.38;97108.16;5022226;28;20221;-68
2021/05/18 14:04:45;;;;;;;1.00;1.00;;;;;;;19.15;69.57;97216.38;4986775;28;20204;-67
2021/05/18 14:10:22;;;;;;;0.90;0.90;;;;;;;19.09;69.76;97215.28;5021653;28;20800;-67
2021/05/18 14:12:48;;;;;;;1.10;1.00;;;;;;;19.15;69.78;97221.47;5021083;28;20231;-67
2021/05/18 14:15:15;;;;;;;0.90;0.90;;;;;;;18.56;70.00;97110.81;5024122;28;20201;-70
2021/05/18 14:17:42;;;;;;;1.27;1.17;;;;;;;19.15;70.14;97215.50;5001254;28;20256;-70
2021/05/18 14:20:09;;;;;;;1.20;1.10;;;;;;;19.15;70.02;97229.13;5036870;28;20258;-67
2021/05/18 14:22:35;;;;;;;1.00;1.00;;;;;;;17.26;69.90;96940.81;5022568;28;20226;-68
2021/05/18 14:25:05;;;;;;;0.90;0.90;;;;;;;19.09;69.92;97213.63;5019821;28;20214;-69
2021/05/18 14:27:33;;;;;;;1.13;0.97;;;;;;;18.79;69.84;97148.06;5003584;28;20237;-69
2021/05/18 14:30:00;;;;;;;1.77;1.10;;;;;;;19.11;69.86;97206.91;5004376;28;20217;-69
2021/05/18 14:32:26;;;;;;;2.70;0.90;;;;;;;18.65;69.88;97103.47;5006583;28;20208;-69
2021/05/18 14:34:53;;;;;;;0.90;0.90;;;;;;;19.15;69.94;97203.66;5022780;28;20205;-67
2021/05/18 14:37:20;;;;;;;1.23;0.83;;;;;;;19.01;69.82;97171.75;5005882;28;20240;-67
2021/05/18 14:45:01;;;;;;;6.03;1.10;;;;;;;19.01;69.82;97169.19;5021609;28;20256;-67
2021/05/18 14:47:33;;;;;;;0.97;0.97;;;;;;;19.12;70.08;97197.56;5006220;28;20209;-67
2021/05/18 14:55:32;;;;;;;1.40;1.00;;;;;;;19.14;69.86;97181.53;5024311;28;20233;-69
2021/05/18 14:57:58;;;;;;;1.03;1.03;;;;;;;19.10;69.72;97173.75;5025757;28;20202;-68
2021/05/18 15:00:25;;;;;;;1.07;0.83;;;;;;;18.98;69.73;97156.38;5024827;28;20237;-67
2021/05/18 15:02:52;;;;;;;1.20;0.93;;;;;;;19.14;69.95;97189.19;4993686;28;20222;-69
2021/05/18 15:05:18;;;;;;;0.80;0.80;;;;;;;19.15;69.85;97190.03;5023875;28;20213;-69
2021/05/18 15:07:45;;;;;;;1.07;0.93;;;;;;;19.06;70.08;97167.69;5025476;28;20205;-68
2021/05/18 15:10:12;;;;;;;0.80;0.80;;;;;;;19.16;70.04;97184.16;5025230;28;20221;-68
2021/05/18 15:12:39;;;;;;;0.80;0.80;;;;;;;18.69;69.88;97090.03;5024374;28;20573;-70
2021/05/18 15:15:06;;;;;;;1.00;1.00;;;;;;;19.13;69.87;97179.78;5011321;28;20255;-69
2021/05/18 15:17:33;;;;;;;0.93;0.93;;;;;;;19.10;69.90;97173.75;5024739;28;20205;-67
2021/05/18 15:20:00;;;;;;;1.20;0.90;;;;;;;19.06;69.53;97172.78;5025520;28;20225;-67
2021/05/18 15:22:31;;;;;;;1.07;0.90;;;;;;;19.00;69.83;97166.59;5024448;28;20218;-67
2021/05/18 15:24:58;;;;;;;0.90;0.90;;;;;;;18.61;69.92;97091.44;5015699;28;20198;-68
2021/05/18 15:27:26;;;;;;;1.20;1.10;;;;;;;19.08;69.75;97175.38;5004639;28;20316;-68
2021/05/18 15:29:53;;;;;;;1.00;1.00;;;;;;;19.13;69.89;97189.97;5004617;28;20284;-68
2021/05/18 15:32:20;;;;;;;1.17;1.00;;;;;;;19.14;69.73;97189.19;5024868;28;20193;-68
2021/05/18 15:34:47;;;;;;;1.00;1.00;;;;;;;18.99;70.00;97167.44;5023641;28;20293;-68
2021/05/18 15:37:14;;;;;;;0.90;0.90;;;;;;;19.08;70.13;97183.00;5019467;28;20363;-69
2021/05/18 15:39:42;;;;;;;1.50;0.90;;;;;;;19.11;69.96;97196.72;4991571;28;20221;-68
2021/05/18 15:42:08;;;;;;;0.90;0.90;;;;;;;18.54;70.09;97084.44;5025394;28;20229;-70
2021/05/18 15:44:35;;;;;;;1.00;1.00;;;;;;;18.98;69.97;97164.00;5009267;28;20212;-67
2021/05/18 15:47:03;;;;;;;0.90;0.90;;;;;;;19.14;69.99;97191.72;5002788;28;20203;-68
2021/05/18 15:49:31;;;;;;;1.00;1.00;;;;;;;19.15;70.13;97195.13;5023585;28;20226;-67
2021/05/18 15:51:57;;;;;;;0.87;0.87;;;;;;;19.15;70.00;97196.00;5025697;28;20201;-68
2021/05/18 15:54:24;;;;;;;1.00;1.00;;;;;;;19.14;70.02;97194.28;5026088;28;20248;-70
2021/05/18 15:56:51;;;;;;;0.90;0.90;;;;;;;19.15;69.85;97205.31;5023783;28;20661;-69
2021/05/18 15:59:18;;;;;;;1.53;0.90;;;;;;;18.93;69.99;97157.03;5023112;28;20236;-68
2021/05/18 16:01:45;;;;;;;0.87;0.87;;;;;;;19.15;69.93;97213.84;5008873;28;20238;-67
2021/05/18 16:04:12;;;;;;;0.80;0.80;;;;;;;18.63;69.46;97113.59;5007667;28;20231;-69
2021/05/18 16:06:41;;;;;;;0.90;0.90;;;;;;;19.04;69.92;97182.03;5017636;28;20197;-67
2021/05/18 16:09:11;;;;;;;0.97;0.90;;;;;;;19.15;70.03;97200.22;5023145;28;20283;-68
2021/05/18 16:11:38;;;;;;;0.97;0.97;;;;;;;18.57;69.89;97087.06;5008912;28;20237;-69
2021/05/18 16:14:06;;;;;;;1.30;0.90;;;;;;;18.98;69.95;97164.00;5008383;28;20193;-68
2021/05/18 16:16:33;;;;;;;1.00;1.00;;;;;;;18.99;70.05;97155.56;5009893;28;20300;-71
2021/05/18 16:18:59;;;;;;;0.80;0.80;;;;;;;19.00;70.30;97146.22;4990737;28;20290;-68
2021/05/18 16:21:26;;;;;;;1.03;0.93;;;;;;;19.15;69.91;97172.19;5007355;28;20268;-68
2021/05/18 16:23:54;;;;;;;0.90;0.90;;;;;;;19.15;69.94;97172.19;5025813;28;20217;-69
2021/05/18 16:26:23;;;;;;;1.10;1.00;;;;;;;18.99;70.07;97134.31;5008463;28;20235;-69
2021/05/18 16:28:50;;;;;;;0.80;0.80;;;;;;;19.02;70.09;97130.22;5024220;28;20206;-67
2021/05/18 16:31:17;;;;;;;1.60;1.03;;;;;;;19.15;70.17;97145.06;5011436;28;21001;-68
2021/05/18 16:33:44;;;;;;;0.90;0.90;;;;;;;19.16;70.08;97148.47;5024708;28;20210;-67
2021/05/18 16:36:13;;;;;;;0.80;0.80;;;;;;;18.67;70.00;97056.91;5027414;28;20216;-69
2021/05/18 16:38:39;;;;;;;0.87;0.87;;;;;;;19.00;69.71;97115.66;5014657;28;20845;-66
2021/05/18 16:41:26;;;;;;;1.53;0.83;;;;;;;19.08;69.74;97132.94;5016454;28;20212;-68
2021/05/18 16:43:53;;;;;;;0.90;0.90;;;;;;;19.16;69.81;97148.47;5022585;28;20648;-67
2021/05/18 16:46:19;;;;;;;0.90;0.90;;;;;;;19.02;69.79;97127.66;5025419;28;20206;-67
2021/05/18 16:48:46;;;;;;;1.00;1.00;;;;;;;19.04;69.97;97130.25;5004655;28;20199;-68
2021/05/18 16:51:13;;;;;;;1.00;1.00;;;;;;;19.01;70.26;97128.44;5026963;28;20711;-69